• Join FlightAware (Why Join?)
  • Login
  • US Flag 
12:48AM EST


 

Airport Tracker/Info


-or-


 

Live Flight TrackerFlight Track Log ✈ N5232U ✈ 01-May-2013 ✈ KSUS - KUYF

Flight Track Log - Related Links

Times and Time Zones

All times are in EDT time to prevent confusion due to time zone crossing. See the N5232U flight status page for this flight to view local times or setup timezone preferences in your user account.

Time Position Orientation Groundspeed Altitude Reporting Facility
EDT Latitude Longitude Course Direction KTS MPH feet Rate Location/Type
01:35PM 38.6333 -90.6667 72° East 125 144 5,400  Level Gateway (St. Louis) TRACON
01:37PM 38.6500 -90.6000 72° East 128 147 5,500  Climbing Gateway (St. Louis) TRACON
01:38PM 38.6667 -90.5333 72° East 132 152 5,400  Descending Gateway (St. Louis) TRACON
01:39PM 38.6667 -90.5000 90° East 121 139 5,500  Climbing Gateway (St. Louis) TRACON
01:40PM 38.6833 -90.4500 67° East 125 144 5,500 -60 Level Gateway (St. Louis) TRACON
01:40PM 38.6833 -90.4167 90° East 131 151 5,400 -120 Descending Gateway (St. Louis) TRACON
01:41PM 38.6892 -90.4067 53° Northeast 128 147 5,400  Level Kansas City Center
01:42PM 38.6972 -90.3661 76° East 128 147 5,400  Level Kansas City Center
01:43PM 38.7094 -90.3131 74° East 129 148 5,500  Climbing Kansas City Center
01:44PM 38.7197 -90.2667 74° East 132 152 5,500 -60 Level Kansas City Center
01:45PM 38.7297 -90.2214 74° East 133 153 5,400  Descending Kansas City Center
01:46PM 38.7389 -90.1739 76° East 135 155 5,500  Climbing Kansas City Center
01:47PM 38.7483 -90.1281 75° East 135 155 5,500 -60 Level Kansas City Center
01:48PM 38.7578 -90.0831 75° East 133 153 5,400  Descending Kansas City Center
01:49PM 38.7689 -90.0292 75° East 132 152 5,500  Climbing Kansas City Center
01:50PM 38.7775 -89.9869 75° East 128 147 5,400 -60 Descending Kansas City Center
01:51PM 38.7850 -89.9422 78° East 127 146 5,400  Level Kansas City Center
01:52PM 38.7956 -89.8944 74° East 133 153 5,400  Level Kansas City Center
01:53PM 38.8069 -89.8475 73° East 136 157 5,400  Level Kansas City Center
01:54PM 38.8161 -89.8036 75° East 133 153 5,500  Climbing Kansas City Center
01:55PM 38.8269 -89.7497 76° East 131 151 5,500  Level Kansas City Center
01:56PM 38.8367 -89.7044 75° East 131 151 5,500 -60 Level Kansas City Center
01:57PM 38.8464 -89.6544 76° East 132 152 5,400 -60 Descending Kansas City Center
01:58PM 38.8550 -89.6097 76° East 130 150 5,400  Level Kansas City Center
01:59PM 38.8647 -89.5622 75° East 128 147 5,400  Level Kansas City Center
02:00PM 38.8742 -89.5164 75° East 131 151 5,400  Level Kansas City Center
02:01PM 38.8833 -89.4681 76° East 130 150 5,400  Level Kansas City Center
02:03PM 38.8931 -89.4242 74° East 129 148 5,400  Level Kansas City Center
02:04PM 38.9031 -89.3800 74° East 129 148 5,400 -60 Level Kansas City Center
02:05PM 38.9117 -89.3317 77° East 129 148 5,300  Descending Kansas City Center
02:06PM 38.9203 -89.2861 76° East 132 152 5,400  Climbing Kansas City Center
02:07PM 38.9308 -89.2378 74° East 130 150 5,400  Level Kansas City Center
02:08PM 38.9397 -89.1942 75° East 127 146 5,400  Level Kansas City Center
02:09PM 38.9489 -89.1469 76° East 127 146 5,400  Level Kansas City Center
02:10PM 38.9583 -89.1028 75° East 127 146 5,400  Level Kansas City Center
02:11PM 38.9669 -89.0592 76° East 126 145 5,400 -60 Level Kansas City Center
02:12PM 38.9761 -89.0128 76° East 125 144 5,300  Descending Kansas City Center
02:13PM 38.9853 -88.9692 75° East 126 145 5,400  Climbing Kansas City Center
02:14PM 38.9969 -88.9222 72° East 130 150 5,300  Descending Kansas City Center
02:15PM 39.0069 -88.8781 74° East 130 150 5,400  Climbing Kansas City Center
02:16PM 39.0150 -88.8344 77° East 128 147 5,400  Level Kansas City Center
02:17PM 39.0225 -88.7900 78° East 127 146 5,400  Level Kansas City Center
02:18PM 39.0297 -88.7453 78° East 128 147 5,400  Level Kansas City Center
02:19PM 39.0419 -88.6931 73° East 128 147 5,400  Level Kansas City Center
02:20PM 39.0506 -88.6492 76° East 127 146 5,400  Level Kansas City Center
02:21PM 39.0572 -88.6047 79° East 127 146 5,400 -60 Level Kansas City Center
02:22PM 39.0639 -88.5597 79° East 127 146 5,300  Descending Kansas City Center
02:23PM 39.0731 -88.5153 75° East 127 146 5,400  Climbing Kansas City Center
02:24PM 39.0831 -88.4689 74° East 129 148 5,400  Level Kansas City Center
02:25PM 39.0942 -88.4161 75° East 128 147 5,400  Level Kansas City Center
02:26PM 39.1019 -88.3692 78° East 129 148 5,500  Climbing Indianapolis Center
02:27PM 39.1108 -88.3228 76° East 130 150 5,500  Level Indianapolis Center
02:28PM 39.1200 -88.2767 76° East 132 152 5,500  Level Indianapolis Center
02:29PM 39.1283 -88.2336 76° East 130 150 5,500  Level Kansas City Center
02:30PM 39.1367 -88.1881 77° East 129 148 5,500  Level Kansas City Center
02:31PM 39.1456 -88.1442 75° East 128 147 5,500 -60 Level Kansas City Center
02:33PM 39.1558 -88.0894 76° East 129 148 5,400  Descending Kansas City Center
02:34PM 39.1642 -88.0464 76° East 128 147 5,500  Climbing Kansas City Center
02:35PM 39.1722 -88.0006 77° East 128 147 5,500 -60 Level Kansas City Center
02:36PM 39.1803 -87.9547 77° East 129 148 5,400 -60 Descending Kansas City Center
02:37PM 39.1886 -87.9106 76° East 129 148 5,400  Level Kansas City Center
02:38PM 39.1978 -87.8678 75° East 127 146 5,500  Climbing Kansas City Center
02:39PM 39.2058 -87.8242 77° East 126 145 5,400  Descending Kansas City Center
02:40PM 39.2106 -87.7797 82° East 124 143 5,500  Climbing Indianapolis Center
02:41PM 39.2225 -87.7339 71° East 131 151 5,500 -60 Level Indianapolis Center
02:42PM 39.2322 -87.6781 77° East 133 153 5,400  Descending Indianapolis Center
02:43PM 39.2400 -87.6339 77° East 128 147 5,500  Climbing Indianapolis Center
02:44PM 39.2481 -87.5897 77° East 128 147 5,500  Level Indianapolis Center
02:45PM 39.2575 -87.5453 75° East 127 146 5,500 -60 Level Indianapolis Center
02:46PM 39.2647 -87.4989 79° East 129 148 5,400  Descending Indianapolis Center
02:47PM 39.2744 -87.4478 76° East 127 146 5,500  Climbing Indianapolis Center
02:48PM 39.2847 -87.4036 73° East 127 146 5,400  Descending Indianapolis Center
02:49PM 39.2903 -87.3597 81° East 126 145 5,500  Climbing Indianapolis Center
02:50PM 39.2994 -87.3175 74° East 122 140 5,400 -60 Descending Indianapolis Center
02:51PM 39.3069 -87.2731 78° East 125 144 5,400  Level Indianapolis Center
02:52PM 39.3144 -87.2303 77° East 122 140 5,500  Climbing Indianapolis Center
02:53PM 39.3228 -87.1872 76° East 122 140 5,500  Level Indianapolis Center
02:54PM 39.3328 -87.1361 76° East 125 144 5,600  Climbing Indianapolis Center
02:55PM 39.3386 -87.0917 80° East 124 143 5,500 -120 Descending Indianapolis Center
02:56PM 39.3472 -87.0494 75° East 122 140 5,400 -60 Descending Indianapolis Center
02:57PM 39.3553 -87.0094 75° East 116 133 5,400 60 Level Indianapolis Center
02:58PM 39.3633 -86.9669 76° East 119 137 5,600  Climbing Indianapolis Center
02:59PM 39.3708 -86.9203 78° East 127 146 5,500 -60 Descending Indianapolis Center
03:00PM 39.3786 -86.8703 79° East 123 142 5,500  Level Indianapolis Center
03:01PM 39.3872 -86.8283 75° East 120 138 5,500  Level Indianapolis Center
03:02PM 39.3956 -86.7847 76° East 125 144 5,500  Level Indianapolis Center
03:04PM 39.4028 -86.7400 78° East 125 144 5,500  Level Indianapolis Center
03:05PM 39.4106 -86.6972 77° East 124 143 5,500  Level Indianapolis Center
03:06PM 39.4178 -86.6539 78° East 122 140 5,500  Level Indianapolis Center
03:07PM 39.4269 -86.6039 77° East 123 142 5,500  Level Indianapolis Center
03:08PM 39.4331 -86.5611 80° East 121 139 5,500 -60 Level Indianapolis Center
03:09PM 39.4428 -86.5153 75° East 129 148 5,400 -60 Descending Indianapolis Center
03:10PM 39.4494 -86.4697 79° East 128 147 5,400 60 Level Indianapolis Center
03:11PM 39.4575 -86.4272 76° East 124 143 5,600 60 Climbing Indianapolis Center
03:12PM 39.4667 -86.3817 75° East 128 147 5,600  Level Indianapolis Center
03:13PM 39.4758 -86.3281 77° East 131 151 5,600 -60 Level Indianapolis Center
03:14PM 39.4828 -86.2836 79° East 127 146 5,500  Descending Indianapolis Center
03:15PM 39.4900 -86.2386 78° East 127 146 5,600  Climbing Indianapolis Center
03:16PM 39.4983 -86.1928 77° East 130 150 5,500 -60 Descending Indianapolis Center
03:17PM 39.5078 -86.1472 75° East 131 151 5,500  Level Indianapolis Center
03:18PM 39.5147 -86.1031 78° East 127 146 5,500  Level Indianapolis Center
03:19PM 39.5244 -86.0508 76° East 127 146 5,500  Level Indianapolis Center
03:20PM 39.5319 -86.0056 78° East 128 147 5,500  Level Indianapolis Center
03:21PM 39.5381 -85.9625 80° East 124 143 5,500  Level Indianapolis Center
03:22PM 39.5458 -85.9197 77° East 123 142 5,500  Level Indianapolis Center
03:23PM 39.5533 -85.8758 77° East 123 142 5,500  Level Indianapolis Center
03:24PM 39.5600 -85.8306 79° East 125 144 5,500  Level Indianapolis Center
03:25PM 39.5683 -85.7803 78° East 124 143 5,500  Level Indianapolis Center
03:26PM 39.5758 -85.7369 77° East 123 142 5,500  Level Indianapolis Center
03:27PM 39.5828 -85.6936 78° East 123 142 5,500  Level Indianapolis Center
03:28PM 39.5906 -85.6503 77° East 122 140 5,600  Climbing Indianapolis Center
03:29PM 39.5972 -85.6078 78° East 122 140 5,500 -60 Descending Indianapolis Center
03:30PM 39.6047 -85.5647 77° East 121 139 5,500 -60 Level Indianapolis Center
03:31PM 39.6128 -85.5139 78° East 122 140 5,400  Descending Indianapolis Center
03:32PM 39.6203 -85.4714 77° East 122 140 5,500  Climbing Indianapolis Center
03:33PM 39.6281 -85.4281 77° East 122 140 5,500  Level Indianapolis Center
03:35PM 39.6347 -85.3847 79° East 122 140 5,500 -60 Level Indianapolis Center
03:36PM 39.6417 -85.3403 79° East 123 142 5,400 60 Descending Indianapolis Center
03:36PM 39.6447 -85.3200 79° East 121 139 5,600 60 Climbing Indianapolis Center
03:37PM 39.6464 -85.2961 85° East 124 143 5,500  Descending Indianapolis Center
03:37PM 39.6486 -85.2772 81° East 123 142 5,600 -120 Climbing Indianapolis Center
03:38PM 39.6561 -85.2453 73° East 123 142 5,400 -120 Descending Indianapolis Center
03:38PM 39.6586 -85.2325 76° East 125 144 5,500  Climbing Indianapolis Center
03:39PM 39.6644 -85.2003 77° East 126 145 5,400 60 Descending Indianapolis Center
03:39PM 39.6669 -85.1875 76° East 128 147 5,600  Climbing Indianapolis Center
03:40PM 39.6711 -85.1561 80° East 125 144 5,400 -60 Descending Indianapolis Center
03:41PM 39.6794 -85.1125 76° East 124 143 5,500 120 Climbing Indianapolis Center
03:41PM 39.6811 -85.0947 83° East 123 142 5,600  Climbing Indianapolis Center
03:42PM 39.6858 -85.0686 77° East 124 143 5,500  Descending Indianapolis Center
03:42PM 39.6892 -85.0522 75° East 125 144 5,600 -120 Climbing Indianapolis Center
03:43PM 39.6925 -85.0242 81° East 125 144 5,400 -120 Descending Indianapolis Center
03:43PM 39.6950 -85.0069 79° East 123 142 5,500 60 Climbing Indianapolis Center
03:44PM 39.6989 -84.9822 78° East 122 140 5,500  Level Indianapolis Center
03:44PM 39.7028 -84.9675 71° East 118 136 5,500 -120 Level Indianapolis Center
03:45PM 39.7069 -84.9331 81° East 119 137 5,400  Descending Indianapolis Center
03:46PM 39.7147 -84.8903 77° East 120 138 5,500  Climbing Indianapolis Center
03:47PM 39.7203 -84.8519 79° East 119 137 5,500  Level Indianapolis Center
03:47PM 39.7225 -84.8344 81° East 121 139 5,500 60 Level Indianapolis Center
03:48PM 39.7319 -84.7950 73° East 122 140 5,600 -60 Climbing Indianapolis Center
03:49PM 39.7375 -84.7594 79° East 120 138 5,400 -120 Descending Indianapolis Center
03:49PM 39.7403 -84.7472 74° East 119 137 5,500 60 Climbing Indianapolis Center
03:50PM 39.7439 -84.7175 81° East 118 136 5,500  Level Indianapolis Center
03:51PM 39.7500 -84.6728 80° East 122 140 5,500 -60 Level Indianapolis Center
03:52PM 39.7561 -84.6294 80° East 122 140 5,400  Descending Indianapolis Center
03:53PM 39.7606 -84.5889 82° East 115 132 5,500  Climbing Indianapolis Center
03:54PM 39.7678 -84.5461 78° East 119 137 5,400  Descending Indianapolis Center
03:55PM 39.7761 -84.4958 78° East 122 140 5,500  Climbing Indianapolis Center
03:56PM 39.7833 -84.4508 78° East 125 144 5,400 -60 Descending Indianapolis Center
03:57PM 39.7900 -84.4092 78° East 119 137 5,400  Level Indianapolis Center
03:58PM 39.7964 -84.3692 78° East 119 137 5,500  Climbing Indianapolis Center
03:59PM 39.8039 -84.3269 77° East 117 135 5,400 -60 Descending Indianapolis Center
04:00PM 39.8100 -84.2825 80° East 118 136 5,400  Level Indianapolis Center
04:01PM 39.8153 -84.2358 82° East 117 135 5,500  Climbing Indianapolis Center
04:02PM 39.8228 -84.1961 76° East 116 133 5,500  Level Indianapolis Center
04:03PM 39.8281 -84.1533 81° East 122 140 5,500 -420 Level Indianapolis Center
04:04PM 39.8336 -84.1106 80° East 138 159 4,800 -780 Descending Indianapolis Center
04:05PM 39.8436 -84.0631 75° East 142 163 4,100 -600 Descending Indianapolis Center
04:06PM 39.8439 -84.0492 89° East 137 158 4,100 -540 Level Indianapolis Center
04:06PM 39.8514 -84.0150 74° East 136 157 3,600 -600 Descending Indianapolis Center
04:07PM 39.8539 -84.0019 76° East 137 158 3,500 -240 Descending Indianapolis Center
04:07PM 39.8611 -83.9703 73° East 123 142 3,400 -120 Descending Indianapolis Center
04:08PM 39.8664 -83.9669 26° Northeast 132 152 3,400 60 Level Indianapolis Center
04:08PM 39.8972 -83.9639 North 130 150 3,500  Climbing Indianapolis Center
04:09PM 39.9025 -83.9611 22° Northeast 129 148 3,400 -420 Descending Indianapolis Center
04:09PM 39.9319 -83.9494 17° North 129 148 3,100 -540 Descending Indianapolis Center
04:10PM 39.9431 -83.9433 23° Northeast 130 150 2,900 -480 Descending Indianapolis Center
04:10PM 39.9692 -83.9269 26° Northeast 136 157 2,600 -300 Descending Indianapolis Center
04:11PM 39.9781 -83.9239 15° North 133 153 2,600 -120 Level Indianapolis Center
04:11PM 40.0019 -83.9394 333° Northwest 132 152 2,500 -120 Descending Indianapolis Center
04:12PM 40.0111 -83.9283 43° Northeast 139 160 2,500  Level Indianapolis Center
04:12PM 40.0303 -83.9239 10° North 128 147 2,500 -120 Level Indianapolis Center
04:13PM 40.0239 -83.9347 232° Southwest 146 168 2,400 -120 Descending Indianapolis Center
04:13PM 40.0128 -83.9325 171° South 117 135 2,400 60 Level Indianapolis Center
04:14PM 40.0197 -83.9225 48° Northeast 120 138 2,500 60 Climbing Indianapolis Center
04:15PM 40.0150 -83.9328 239° Southwest 120 138 2,500  Level Indianapolis Center
04:15PM 40.0183 -83.9200 71° East 120 138 2,500 -120 Level Indianapolis Center
04:15PM 40.0192 -83.9333 275° West 134 154 2,400 -120 Descending Indianapolis Center
04:16PM 40.0100 -83.9289 160° South 115 132 2,400 60 Level Indianapolis Center
04:17PM 40.0028 -83.9014 109° East 105 121 2,500 180 Climbing Indianapolis Center
04:17PM 40.0022 -83.8925 95° East 105 121 2,600  Climbing Indianapolis Center
04:17PM 40.0008 -83.8683 94° East 102 117 2,500 -240 Descending Indianapolis Center
04:18PM 39.9986 -83.8464 98° East 106 122 2,400  Descending Indianapolis Center
04:19PM 39.9958 -83.8269 101° East 111 128 2,500 240 Climbing Indianapolis Center
04:19PM 39.9936 -83.8072 98° East 108 124 2,700  Climbing Indianapolis Center
04:20PM 39.9922 -83.7883 95° East 110 127 2,500 -300 Descending Indianapolis Center
04:20PM 39.9906 -83.7656 95° East 111 128 2,400 -120 Descending Indianapolis Center
04:21PM 39.9878 -83.7386 98° East 116 133 2,400 60 Level Indianapolis Center
04:21PM 39.9878 -83.7244 90° East 113 130 2,500 60 Climbing Indianapolis Center
04:22PM 39.9864 -83.7003 94° East 109 125 2,500  Level Indianapolis Center
04:22PM 39.9844 -83.6850 99° East 110 127 2,500 60 Level Indianapolis Center
04:23PM 39.9808 -83.6617 101° East 116 133 2,600  Climbing Indianapolis Center
04:23PM 39.9808 -83.6425 90° East 113 130 2,500 -240 Descending Indianapolis Center
04:24PM 39.9778 -83.6178 99° East 121 139 2,400  Descending Indianapolis Center
04:24PM 39.9772 -83.5992 92° East 117 135 2,500 60 Climbing Indianapolis Center
04:25PM 39.9747 -83.5736 97° East 109 125 2,500  Level Indianapolis Center
04:25PM 39.9736 -83.5506 94° East 115 132 2,500  Level Indianapolis Center
04:26PM 39.9717 -83.5297 97° East 120 138 2,500  Level Indianapolis Center
04:26PM 39.9694 -83.5072 97° East 117 135 2,500 -120 Level Indianapolis Center
04:27PM 39.9664 -83.4856 100° East 119 137 2,400 60 Descending Indianapolis Center
04:27PM 39.9647 -83.4642 96° East 118 136 2,600 60 Climbing Indianapolis Center
04:28PM 39.9611 -83.4442 103° East 118 136 2,500 -120 Descending Indianapolis Center
04:28PM 39.9561 -83.4217 106° East 119 137 2,500 -120 Level Indianapolis Center
04:29PM 39.9494 -83.4019 114° Southeast 120 138 2,400 -120 Descending Indianapolis Center
04:29PM 39.9461 -83.3825 103° East 119 137 2,400  Level Indianapolis Center